sensor_id;sensor_type;location;lat;lon;timestamp;P1;durP1;ratioP1;P2;durP2;ratioP2
25073;SDS011;13066;52.042;5.648;2024-02-16T00:02:14;4.57;;;2.83;;
25073;SDS011;13066;52.042;5.648;2024-02-16T00:04:43;4.78;;;2.78;;
25073;SDS011;13066;52.042;5.648;2024-02-16T00:07:11;7.65;;;2.92;;
25073;SDS011;13066;52.042;5.648;2024-02-16T00:09:39;6.15;;;2.78;;
25073;SDS011;13066;52.042;5.648;2024-02-16T00:12:08;4.22;;;2.83;;
25073;SDS011;13066;52.042;5.648;2024-02-16T00:14:38;5.10;;;2.75;;
25073;SDS011;13066;52.042;5.648;2024-02-16T00:17:06;4.53;;;2.70;;
25073;SDS011;13066;52.042;5.648;2024-02-16T00:19:36;4.18;;;2.53;;
25073;SDS011;13066;52.042;5.648;2024-02-16T00:22:05;6.28;;;3.10;;
25073;SDS011;13066;52.042;5.648;2024-02-16T00:24:34;6.13;;;2.50;;
25073;SDS011;13066;52.042;5.648;2024-02-16T00:27:03;5.10;;;2.92;;
25073;SDS011;13066;52.042;5.648;2024-02-16T00:29:34;4.72;;;2.80;;
25073;SDS011;13066;52.042;5.648;2024-02-16T00:32:02;5.53;;;3.15;;
25073;SDS011;13066;52.042;5.648;2024-02-16T00:34:32;7.07;;;3.35;;
25073;SDS011;13066;52.042;5.648;2024-02-16T00:37:05;5.30;;;3.03;;
25073;SDS011;13066;52.042;5.648;2024-02-16T00:39:36;4.90;;;2.90;;
25073;SDS011;13066;52.042;5.648;2024-02-16T00:42:04;7.95;;;2.97;;
25073;SDS011;13066;52.042;5.648;2024-02-16T00:44:34;5.53;;;2.42;;
25073;SDS011;13066;52.042;5.648;2024-02-16T00:47:02;5.80;;;2.90;;
25073;SDS011;13066;52.042;5.648;2024-02-16T00:49:32;5.07;;;2.58;;
25073;SDS011;13066;52.042;5.648;2024-02-16T00:52:01;6.07;;;3.00;;
25073;SDS011;13066;52.042;5.648;2024-02-16T00:54:30;4.57;;;2.70;;
25073;SDS011;13066;52.042;5.648;2024-02-16T00:56:58;4.40;;;2.65;;
25073;SDS011;13066;52.042;5.648;2024-02-16T00:59:29;4.57;;;2.92;;
25073;SDS011;13066;52.042;5.648;2024-02-16T01:01:59;5.32;;;2.90;;
25073;SDS011;13066;52.042;5.648;2024-02-16T01:04:27;5.88;;;2.80;;
25073;SDS011;13066;52.042;5.648;2024-02-16T01:06:56;6.20;;;3.08;;
25073;SDS011;13066;52.042;5.648;2024-02-16T01:09:24;6.97;;;2.70;;
25073;SDS011;13066;52.042;5.648;2024-02-16T01:11:53;4.90;;;2.75;;
25073;SDS011;13066;52.042;5.648;2024-02-16T01:14:21;6.63;;;3.08;;
25073;SDS011;13066;52.042;5.648;2024-02-16T01:16:49;6.13;;;2.80;;
25073;SDS011;13066;52.042;5.648;2024-02-16T01:19:19;5.22;;;2.85;;
25073;SDS011;13066;52.042;5.648;2024-02-16T01:21:47;5.82;;;3.40;;
25073;SDS011;13066;52.042;5.648;2024-02-16T01:24:19;4.55;;;2.53;;
25073;SDS011;13066;52.042;5.648;2024-02-16T01:26:48;5.40;;;3.17;;
25073;SDS011;13066;52.042;5.648;2024-02-16T01:29:16;7.43;;;3.25;;
25073;SDS011;13066;52.042;5.648;2024-02-16T01:31:44;4.75;;;2.70;;
25073;SDS011;13066;52.042;5.648;2024-02-16T01:34:12;5.43;;;2.78;;
25073;SDS011;13066;52.042;5.648;2024-02-16T01:36:42;3.70;;;2.67;;
25073;SDS011;13066;52.042;5.648;2024-02-16T01:39:10;7.25;;;3.03;;
25073;SDS011;13066;52.042;5.648;2024-02-16T01:41:38;4.18;;;2.78;;
25073;SDS011;13066;52.042;5.648;2024-02-16T01:44:06;6.70;;;3.25;;
25073;SDS011;13066;52.042;5.648;2024-02-16T01:46:35;5.93;;;2.75;;
25073;SDS011;13066;52.042;5.648;2024-02-16T01:49:03;6.22;;;2.90;;
25073;SDS011;13066;52.042;5.648;2024-02-16T01:51:32;4.38;;;2.78;;
25073;SDS011;13066;52.042;5.648;2024-02-16T01:54:02;3.92;;;2.67;;
25073;SDS011;13066;52.042;5.648;2024-02-16T01:56:30;4.85;;;2.92;;
25073;SDS011;13066;52.042;5.648;2024-02-16T01:58:58;4.78;;;2.80;;
25073;SDS011;13066;52.042;5.648;2024-02-16T02:01:26;3.85;;;2.70;;
25073;SDS011;13066;52.042;5.648;2024-02-16T02:03:54;6.03;;;3.22;;
25073;SDS011;13066;52.042;5.648;2024-02-16T02:06:22;5.68;;;2.88;;
25073;SDS011;13066;52.042;5.648;2024-02-16T02:08:50;5.65;;;3.10;;
25073;SDS011;13066;52.042;5.648;2024-02-16T02:11:20;6.10;;;3.20;;
25073;SDS011;13066;52.042;5.648;2024-02-16T02:13:48;6.57;;;2.80;;
25073;SDS011;13066;52.042;5.648;2024-02-16T02:16:16;5.93;;;3.20;;
25073;SDS011;13066;52.042;5.648;2024-02-16T02:18:44;4.57;;;2.78;;
25073;SDS011;13066;52.042;5.648;2024-02-16T02:21:13;6.60;;;3.25;;
25073;SDS011;13066;52.042;5.648;2024-02-16T02:23:43;5.30;;;3.28;;
25073;SDS011;13066;52.042;5.648;2024-02-16T02:26:13;6.65;;;2.85;;
25073;SDS011;13066;52.042;5.648;2024-02-16T02:28:43;5.43;;;2.80;;
25073;SDS011;13066;52.042;5.648;2024-02-16T02:31:11;4.85;;;3.17;;
25073;SDS011;13066;52.042;5.648;2024-02-16T02:33:39;7.30;;;3.30;;
25073;SDS011;13066;52.042;5.648;2024-02-16T02:36:07;5.57;;;2.90;;
25073;SDS011;13066;52.042;5.648;2024-02-16T02:38:35;5.32;;;3.10;;
25073;SDS011;13066;52.042;5.648;2024-02-16T02:41:06;4.47;;;2.80;;
25073;SDS011;13066;52.042;5.648;2024-02-16T02:43:35;4.35;;;2.95;;
25073;SDS011;13066;52.042;5.648;2024-02-16T02:46:03;3.40;;;2.70;;
25073;SDS011;13066;52.042;5.648;2024-02-16T02:48:31;4.20;;;2.92;;
25073;SDS011;13066;52.042;5.648;2024-02-16T02:50:59;4.28;;;2.70;;
25073;SDS011;13066;52.042;5.648;2024-02-16T02:53:28;5.45;;;2.70;;
25073;SDS011;13066;52.042;5.648;2024-02-16T02:55:56;4.63;;;2.65;;
25073;SDS011;13066;52.042;5.648;2024-02-16T02:58:25;5.47;;;2.75;;
25073;SDS011;13066;52.042;5.648;2024-02-16T03:00:53;3.83;;;2.63;;
25073;SDS011;13066;52.042;5.648;2024-02-16T03:03:22;4.10;;;3.10;;
25073;SDS011;13066;52.042;5.648;2024-02-16T03:05:50;5.85;;;3.40;;
25073;SDS011;13066;52.042;5.648;2024-02-16T03:08:18;4.80;;;3.13;;
25073;SDS011;13066;52.042;5.648;2024-02-16T03:10:46;3.92;;;2.60;;
25073;SDS011;13066;52.042;5.648;2024-02-16T03:13:15;4.95;;;2.85;;
25073;SDS011;13066;52.042;5.648;2024-02-16T03:15:46;7.15;;;2.90;;
25073;SDS011;13066;52.042;5.648;2024-02-16T03:18:14;4.65;;;2.85;;
25073;SDS011;13066;52.042;5.648;2024-02-16T03:20:42;7.07;;;2.90;;
25073;SDS011;13066;52.042;5.648;2024-02-16T03:23:14;6.07;;;3.20;;
25073;SDS011;13066;52.042;5.648;2024-02-16T03:25:43;4.85;;;2.60;;
25073;SDS011;13066;52.042;5.648;2024-02-16T03:28:11;5.03;;;2.92;;
25073;SDS011;13066;52.042;5.648;2024-02-16T03:30:40;4.47;;;3.10;;
25073;SDS011;13066;52.042;5.648;2024-02-16T03:33:10;4.03;;;2.80;;
25073;SDS011;13066;52.042;5.648;2024-02-16T03:35:39;3.83;;;2.72;;
25073;SDS011;13066;52.042;5.648;2024-02-16T03:38:07;3.65;;;2.88;;
25073;SDS011;13066;52.042;5.648;2024-02-16T03:40:35;4.57;;;2.75;;
25073;SDS011;13066;52.042;5.648;2024-02-16T03:43:03;4.53;;;2.92;;
25073;SDS011;13066;52.042;5.648;2024-02-16T03:45:32;4.45;;;3.33;;
25073;SDS011;13066;52.042;5.648;2024-02-16T03:48:00;4.85;;;3.10;;
25073;SDS011;13066;52.042;5.648;2024-02-16T03:50:30;4.07;;;2.75;;
25073;SDS011;13066;52.042;5.648;2024-02-16T03:52:58;4.35;;;3.28;;
25073;SDS011;13066;52.042;5.648;2024-02-16T03:55:26;5.05;;;3.00;;
25073;SDS011;13066;52.042;5.648;2024-02-16T03:57:54;6.38;;;3.22;;
25073;SDS011;13066;52.042;5.648;2024-02-16T04:00:22;6.75;;;3.30;;
25073;SDS011;13066;52.042;5.648;2024-02-16T04:02:50;4.88;;;3.40;;
25073;SDS011;13066;52.042;5.648;2024-02-16T04:05:18;6.65;;;3.65;;
25073;SDS011;13066;52.042;5.648;2024-02-16T04:07:47;5.30;;;3.03;;
25073;SDS011;13066;52.042;5.648;2024-02-16T04:10:15;7.65;;;3.20;;
25073;SDS011;13066;52.042;5.648;2024-02-16T04:12:43;6.35;;;3.17;;
25073;SDS011;13066;52.042;5.648;2024-02-16T04:15:11;5.93;;;3.30;;
25073;SDS011;13066;52.042;5.648;2024-02-16T04:17:39;5.75;;;3.40;;
25073;SDS011;13066;52.042;5.648;2024-02-16T04:20:08;8.20;;;3.60;;
25073;SDS011;13066;52.042;5.648;2024-02-16T04:22:37;4.60;;;3.20;;
25073;SDS011;13066;52.042;5.648;2024-02-16T04:25:07;5.15;;;3.40;;
25073;SDS011;13066;52.042;5.648;2024-02-16T04:27:36;4.82;;;3.00;;
25073;SDS011;13066;52.042;5.648;2024-02-16T04:30:05;6.13;;;3.22;;
25073;SDS011;13066;52.042;5.648;2024-02-16T04:32:34;4.30;;;3.10;;
25073;SDS011;13066;52.042;5.648;2024-02-16T04:35:02;4.28;;;2.97;;
25073;SDS011;13066;52.042;5.648;2024-02-16T04:37:31;4.88;;;3.15;;
25073;SDS011;13066;52.042;5.648;2024-02-16T04:39:59;3.80;;;2.90;;
25073;SDS011;13066;52.042;5.648;2024-02-16T04:42:28;4.43;;;2.92;;
25073;SDS011;13066;52.042;5.648;2024-02-16T04:44:57;7.30;;;3.28;;
25073;SDS011;13066;52.042;5.648;2024-02-16T04:47:27;4.90;;;2.63;;
25073;SDS011;13066;52.042;5.648;2024-02-16T04:49:55;5.28;;;3.28;;
25073;SDS011;13066;52.042;5.648;2024-02-16T04:52:24;5.22;;;3.35;;
25073;SDS011;13066;52.042;5.648;2024-02-16T04:54:56;4.60;;;3.05;;
25073;SDS011;13066;52.042;5.648;2024-02-16T04:57:24;4.85;;;3.30;;
25073;SDS011;13066;52.042;5.648;2024-02-16T04:59:54;4.70;;;3.10;;
25073;SDS011;13066;52.042;5.648;2024-02-16T05:02:22;6.07;;;3.28;;
25073;SDS011;13066;52.042;5.648;2024-02-16T05:04:50;4.85;;;3.30;;
25073;SDS011;13066;52.042;5.648;2024-02-16T05:07:18;7.35;;;4.53;;
25073;SDS011;13066;52.042;5.648;2024-02-16T05:09:47;6.20;;;3.75;;
25073;SDS011;13066;52.042;5.648;2024-02-16T05:12:16;6.78;;;3.38;;
25073;SDS011;13066;52.042;5.648;2024-02-16T05:14:47;5.30;;;3.55;;
25073;SDS011;13066;52.042;5.648;2024-02-16T05:17:17;4.88;;;3.25;;
25073;SDS011;13066;52.042;5.648;2024-02-16T05:19:46;7.90;;;3.35;;
25073;SDS011;13066;52.042;5.648;2024-02-16T05:22:14;5.25;;;3.60;;
25073;SDS011;13066;52.042;5.648;2024-02-16T05:24:44;5.72;;;3.85;;
25073;SDS011;13066;52.042;5.648;2024-02-16T05:27:12;5.95;;;3.30;;
25073;SDS011;13066;52.042;5.648;2024-02-16T05:29:41;4.90;;;3.60;;
25073;SDS011;13066;52.042;5.648;2024-02-16T05:32:09;6.85;;;3.35;;
25073;SDS011;13066;52.042;5.648;2024-02-16T05:34:38;4.22;;;3.20;;
25073;SDS011;13066;52.042;5.648;2024-02-16T05:37:06;5.97;;;3.50;;
25073;SDS011;13066;52.042;5.648;2024-02-16T05:39:35;6.05;;;3.50;;
25073;SDS011;13066;52.042;5.648;2024-02-16T05:42:20;4.57;;;3.10;;
25073;SDS011;13066;52.042;5.648;2024-02-16T05:44:49;5.18;;;3.10;;
25073;SDS011;13066;52.042;5.648;2024-02-16T05:47:18;5.22;;;3.22;;
25073;SDS011;13066;52.042;5.648;2024-02-16T05:49:48;6.57;;;3.08;;
25073;SDS011;13066;52.042;5.648;2024-02-16T05:52:16;5.95;;;3.60;;
25073;SDS011;13066;52.042;5.648;2024-02-16T05:54:45;4.68;;;3.35;;
25073;SDS011;13066;52.042;5.648;2024-02-16T05:57:14;5.65;;;3.40;;
25073;SDS011;13066;52.042;5.648;2024-02-16T05:59:42;6.13;;;3.60;;
25073;SDS011;13066;52.042;5.648;2024-02-16T06:02:12;5.97;;;3.40;;
25073;SDS011;13066;52.042;5.648;2024-02-16T06:04:40;9.00;;;3.72;;
25073;SDS011;13066;52.042;5.648;2024-02-16T06:07:10;5.50;;;3.90;;
25073;SDS011;13066;52.042;5.648;2024-02-16T06:09:39;4.45;;;3.40;;
25073;SDS011;13066;52.042;5.648;2024-02-16T06:12:07;4.70;;;3.47;;
25073;SDS011;13066;52.042;5.648;2024-02-16T06:14:36;7.03;;;3.53;;
25073;SDS011;13066;52.042;5.648;2024-02-16T06:17:04;3.92;;;3.25;;
25073;SDS011;13066;52.042;5.648;2024-02-16T06:19:34;4.65;;;3.53;;
25073;SDS011;13066;52.042;5.648;2024-02-16T06:22:03;6.00;;;3.50;;
25073;SDS011;13066;52.042;5.648;2024-02-16T06:24:32;4.97;;;3.67;;
25073;SDS011;13066;52.042;5.648;2024-02-16T06:27:00;5.82;;;3.45;;
25073;SDS011;13066;52.042;5.648;2024-02-16T06:29:29;7.43;;;3.58;;
25073;SDS011;13066;52.042;5.648;2024-02-16T06:31:57;4.78;;;3.33;;
25073;SDS011;13066;52.042;5.648;2024-02-16T06:34:26;6.97;;;3.50;;
25073;SDS011;13066;52.042;5.648;2024-02-16T06:36:54;5.68;;;3.47;;
25073;SDS011;13066;52.042;5.648;2024-02-16T06:39:23;5.82;;;3.70;;
25073;SDS011;13066;52.042;5.648;2024-02-16T06:41:52;6.22;;;3.53;;
25073;SDS011;13066;52.042;5.648;2024-02-16T06:44:20;5.95;;;3.80;;
25073;SDS011;13066;52.042;5.648;2024-02-16T06:46:50;5.72;;;3.58;;
25073;SDS011;13066;52.042;5.648;2024-02-16T06:49:18;4.95;;;3.67;;
25073;SDS011;13066;52.042;5.648;2024-02-16T06:51:47;5.10;;;3.25;;
25073;SDS011;13066;52.042;5.648;2024-02-16T06:54:15;6.05;;;3.90;;
25073;SDS011;13066;52.042;5.648;2024-02-16T06:56:43;6.15;;;3.85;;
25073;SDS011;13066;52.042;5.648;2024-02-16T06:59:13;5.13;;;3.40;;
25073;SDS011;13066;52.042;5.648;2024-02-16T07:01:41;5.68;;;3.65;;
25073;SDS011;13066;52.042;5.648;2024-02-16T07:04:09;4.85;;;3.30;;
25073;SDS011;13066;52.042;5.648;2024-02-16T07:06:37;4.80;;;3.28;;
25073;SDS011;13066;52.042;5.648;2024-02-16T07:09:06;4.97;;;3.50;;
25073;SDS011;13066;52.042;5.648;2024-02-16T07:11:34;5.68;;;3.80;;
25073;SDS011;13066;52.042;5.648;2024-02-16T07:14:02;5.00;;;3.75;;
25073;SDS011;13066;52.042;5.648;2024-02-16T07:16:34;5.53;;;3.25;;
25073;SDS011;13066;52.042;5.648;2024-02-16T07:19:03;6.07;;;3.65;;
25073;SDS011;13066;52.042;5.648;2024-02-16T07:21:32;4.35;;;3.50;;
25073;SDS011;13066;52.042;5.648;2024-02-16T07:24:00;5.45;;;3.53;;
25073;SDS011;13066;52.042;5.648;2024-02-16T07:26:28;4.68;;;3.60;;
25073;SDS011;13066;52.042;5.648;2024-02-16T07:28:56;6.18;;;4.30;;
25073;SDS011;13066;52.042;5.648;2024-02-16T07:31:24;8.65;;;6.28;;
25073;SDS011;13066;52.042;5.648;2024-02-16T07:33:54;8.85;;;4.38;;
25073;SDS011;13066;52.042;5.648;2024-02-16T07:36:23;6.38;;;3.58;;
25073;SDS011;13066;52.042;5.648;2024-02-16T07:38:51;4.47;;;3.42;;
25073;SDS011;13066;52.042;5.648;2024-02-16T07:41:19;6.43;;;3.88;;
25073;SDS011;13066;52.042;5.648;2024-02-16T07:43:48;5.78;;;3.78;;
25073;SDS011;13066;52.042;5.648;2024-02-16T07:46:16;5.30;;;3.60;;
25073;SDS011;13066;52.042;5.648;2024-02-16T07:48:44;4.28;;;3.50;;
25073;SDS011;13066;52.042;5.648;2024-02-16T07:51:14;4.57;;;3.60;;
25073;SDS011;13066;52.042;5.648;2024-02-16T07:53:42;5.05;;;3.80;;
25073;SDS011;13066;52.042;5.648;2024-02-16T07:56:13;6.82;;;3.60;;
25073;SDS011;13066;52.042;5.648;2024-02-16T07:58:42;5.93;;;3.75;;
25073;SDS011;13066;52.042;5.648;2024-02-16T08:01:11;7.38;;;3.60;;
25073;SDS011;13066;52.042;5.648;2024-02-16T08:03:42;5.72;;;3.50;;
25073;SDS011;13066;52.042;5.648;2024-02-16T08:06:10;5.80;;;3.53;;
25073;SDS011;13066;52.042;5.648;2024-02-16T08:08:40;7.60;;;4.15;;
25073;SDS011;13066;52.042;5.648;2024-02-16T08:11:08;4.43;;;3.10;;
25073;SDS011;13066;52.042;5.648;2024-02-16T08:13:37;4.60;;;3.30;;
25073;SDS011;13066;52.042;5.648;2024-02-16T08:16:05;6.38;;;4.00;;
25073;SDS011;13066;52.042;5.648;2024-02-16T08:18:33;5.90;;;3.58;;
25073;SDS011;13066;52.042;5.648;2024-02-16T08:21:02;5.43;;;3.60;;
25073;SDS011;13066;52.042;5.648;2024-02-16T08:23:30;5.63;;;3.65;;
25073;SDS011;13066;52.042;5.648;2024-02-16T08:26:00;5.43;;;3.38;;
25073;SDS011;13066;52.042;5.648;2024-02-16T08:28:28;6.70;;;4.15;;
25073;SDS011;13066;52.042;5.648;2024-02-16T08:30:56;5.10;;;4.07;;
25073;SDS011;13066;52.042;5.648;2024-02-16T08:33:24;6.68;;;3.85;;
25073;SDS011;13066;52.042;5.648;2024-02-16T08:35:52;6.40;;;4.18;;
25073;SDS011;13066;52.042;5.648;2024-02-16T08:38:21;5.68;;;3.95;;
25073;SDS011;13066;52.042;5.648;2024-02-16T08:40:49;6.50;;;4.35;;
25073;SDS011;13066;52.042;5.648;2024-02-16T08:43:20;5.30;;;3.90;;
25073;SDS011;13066;52.042;5.648;2024-02-16T08:45:48;6.47;;;4.50;;
25073;SDS011;13066;52.042;5.648;2024-02-16T08:48:16;8.65;;;4.00;;
25073;SDS011;13066;52.042;5.648;2024-02-16T08:50:44;6.32;;;4.53;;
25073;SDS011;13066;52.042;5.648;2024-02-16T08:53:12;6.78;;;4.32;;
25073;SDS011;13066;52.042;5.648;2024-02-16T08:55:41;6.55;;;4.43;;
25073;SDS011;13066;52.042;5.648;2024-02-16T08:58:09;6.80;;;4.28;;
25073;SDS011;13066;52.042;5.648;2024-02-16T09:00:38;5.63;;;4.22;;
25073;SDS011;13066;52.042;5.648;2024-02-16T09:03:07;8.52;;;4.35;;
25073;SDS011;13066;52.042;5.648;2024-02-16T09:05:35;5.93;;;3.85;;
25073;SDS011;13066;52.042;5.648;2024-02-16T09:08:04;9.13;;;4.38;;
25073;SDS011;13066;52.042;5.648;2024-02-16T09:10:33;8.80;;;4.25;;
25073;SDS011;13066;52.042;5.648;2024-02-16T09:13:04;6.45;;;3.97;;
25073;SDS011;13066;52.042;5.648;2024-02-16T09:15:32;6.93;;;3.92;;
25073;SDS011;13066;52.042;5.648;2024-02-16T09:18:01;7.13;;;4.57;;
25073;SDS011;13066;52.042;5.648;2024-02-16T09:20:30;6.53;;;4.50;;
25073;SDS011;13066;52.042;5.648;2024-02-16T09:22:58;7.65;;;5.10;;
25073;SDS011;13066;52.042;5.648;2024-02-16T09:25:26;7.13;;;4.40;;
25073;SDS011;13066;52.042;5.648;2024-02-16T09:27:54;8.77;;;4.75;;
25073;SDS011;13066;52.042;5.648;2024-02-16T09:30:22;7.18;;;4.88;;
25073;SDS011;13066;52.042;5.648;2024-02-16T09:32:50;6.63;;;4.43;;
25073;SDS011;13066;52.042;5.648;2024-02-16T09:35:20;6.22;;;4.40;;
25073;SDS011;13066;52.042;5.648;2024-02-16T09:37:48;6.78;;;4.75;;
25073;SDS011;13066;52.042;5.648;2024-02-16T09:40:16;6.10;;;4.38;;
25073;SDS011;13066;52.042;5.648;2024-02-16T09:42:47;6.57;;;3.90;;
25073;SDS011;13066;52.042;5.648;2024-02-16T09:45:17;7.65;;;4.63;;
25073;SDS011;13066;52.042;5.648;2024-02-16T09:47:45;6.80;;;4.53;;
25073;SDS011;13066;52.042;5.648;2024-02-16T09:50:27;9.63;;;4.78;;
25073;SDS011;13066;52.042;5.648;2024-02-16T09:52:56;6.18;;;4.25;;
25073;SDS011;13066;52.042;5.648;2024-02-16T09:55:25;6.78;;;4.50;;
25073;SDS011;13066;52.042;5.648;2024-02-16T09:57:59;5.07;;;3.90;;
25073;SDS011;13066;52.042;5.648;2024-02-16T10:02:56;7.82;;;4.57;;
25073;SDS011;13066;52.042;5.648;2024-02-16T10:05:24;7.78;;;4.93;;
25073;SDS011;13066;52.042;5.648;2024-02-16T10:07:53;7.40;;;4.53;;
25073;SDS011;13066;52.042;5.648;2024-02-16T10:10:21;7.22;;;4.40;;
25073;SDS011;13066;52.042;5.648;2024-02-16T10:12:50;6.82;;;4.63;;
25073;SDS011;13066;52.042;5.648;2024-02-16T10:15:28;6.80;;;4.47;;
25073;SDS011;13066;52.042;5.648;2024-02-16T10:17:59;10.05;;;5.10;;
25073;SDS011;13066;52.042;5.648;2024-02-16T10:20:27;7.25;;;4.78;;
25073;SDS011;13066;52.042;5.648;2024-02-16T10:23:07;6.30;;;4.30;;
25073;SDS011;13066;52.042;5.648;2024-02-16T10:25:35;10.80;;;5.18;;
25073;SDS011;13066;52.042;5.648;2024-02-16T10:28:04;7.63;;;4.90;;
25073;SDS011;13066;52.042;5.648;2024-02-16T10:30:34;7.07;;;5.18;;
25073;SDS011;13066;52.042;5.648;2024-02-16T10:33:04;7.72;;;4.70;;
25073;SDS011;13066;52.042;5.648;2024-02-16T10:35:34;7.20;;;5.38;;
25073;SDS011;13066;52.042;5.648;2024-02-16T10:38:02;8.95;;;5.88;;
25073;SDS011;13066;52.042;5.648;2024-02-16T10:40:36;9.23;;;5.32;;
25073;SDS011;13066;52.042;5.648;2024-02-16T10:43:06;6.40;;;5.25;;
25073;SDS011;13066;52.042;5.648;2024-02-16T10:45:35;9.35;;;6.30;;
25073;SDS011;13066;52.042;5.648;2024-02-16T10:48:05;10.20;;;6.63;;
25073;SDS011;13066;52.042;5.648;2024-02-16T10:50:34;8.18;;;5.80;;
25073;SDS011;13066;52.042;5.648;2024-02-16T10:53:04;10.60;;;6.43;;
25073;SDS011;13066;52.042;5.648;2024-02-16T10:55:34;9.48;;;6.05;;
25073;SDS011;13066;52.042;5.648;2024-02-16T10:58:03;10.48;;;6.05;;
25073;SDS011;13066;52.042;5.648;2024-02-16T11:00:31;8.32;;;5.88;;
25073;SDS011;13066;52.042;5.648;2024-02-16T11:03:01;10.00;;;6.65;;
25073;SDS011;13066;52.042;5.648;2024-02-16T11:05:31;9.38;;;6.05;;
25073;SDS011;13066;52.042;5.648;2024-02-16T11:08:01;10.68;;;6.10;;
25073;SDS011;13066;52.042;5.648;2024-02-16T11:10:31;10.05;;;6.40;;
25073;SDS011;13066;52.042;5.648;2024-02-16T11:13:03;11.80;;;6.53;;
25073;SDS011;13066;52.042;5.648;2024-02-16T11:15:32;10.82;;;6.72;;
25073;SDS011;13066;52.042;5.648;2024-02-16T11:18:01;8.63;;;5.88;;
25073;SDS011;13066;52.042;5.648;2024-02-16T11:20:36;6.95;;;5.93;;
25073;SDS011;13066;52.042;5.648;2024-02-16T11:25:32;8.13;;;6.03;;
25073;SDS011;13066;52.042;5.648;2024-02-16T11:28:01;6.65;;;5.90;;
25073;SDS011;13066;52.042;5.648;2024-02-16T11:30:33;8.30;;;5.80;;
25073;SDS011;13066;52.042;5.648;2024-02-16T11:33:02;7.10;;;6.22;;
25073;SDS011;13066;52.042;5.648;2024-02-16T11:35:32;7.53;;;6.32;;
25073;SDS011;13066;52.042;5.648;2024-02-16T11:38:00;8.98;;;6.00;;
25073;SDS011;13066;52.042;5.648;2024-02-16T11:40:29;7.95;;;5.82;;
25073;SDS011;13066;52.042;5.648;2024-02-16T11:42:58;6.60;;;5.72;;
25073;SDS011;13066;52.042;5.648;2024-02-16T11:45:26;7.78;;;5.60;;
25073;SDS011;13066;52.042;5.648;2024-02-16T11:48:04;7.68;;;6.43;;
25073;SDS011;13066;52.042;5.648;2024-02-16T11:50:34;7.28;;;6.00;;
25073;SDS011;13066;52.042;5.648;2024-02-16T11:53:02;8.38;;;5.80;;
25073;SDS011;13066;52.042;5.648;2024-02-16T11:55:31;6.70;;;5.97;;
25073;SDS011;13066;52.042;5.648;2024-02-16T11:58:01;8.00;;;5.97;;
25073;SDS011;13066;52.042;5.648;2024-02-16T12:00:29;7.60;;;5.88;;
25073;SDS011;13066;52.042;5.648;2024-02-16T12:03:00;6.45;;;5.50;;
25073;SDS011;13066;52.042;5.648;2024-02-16T12:05:30;6.55;;;5.85;;
25073;SDS011;13066;52.042;5.648;2024-02-16T12:07:58;9.07;;;5.60;;
25073;SDS011;13066;52.042;5.648;2024-02-16T12:10:27;6.22;;;5.53;;
25073;SDS011;13066;52.042;5.648;2024-02-16T12:12:56;8.18;;;6.50;;
25073;SDS011;13066;52.042;5.648;2024-02-16T12:15:30;7.97;;;6.25;;
25073;SDS011;13066;52.042;5.648;2024-02-16T12:17:59;7.82;;;6.78;;
25073;SDS011;13066;52.042;5.648;2024-02-16T12:20:29;8.32;;;5.75;;
25073;SDS011;13066;52.042;5.648;2024-02-16T12:22:59;7.78;;;5.30;;
25073;SDS011;13066;52.042;5.648;2024-02-16T12:25:28;7.85;;;6.00;;
25073;SDS011;13066;52.042;5.648;2024-02-16T12:27:56;8.48;;;6.80;;
25073;SDS011;13066;52.042;5.648;2024-02-16T12:30:24;10.57;;;8.10;;
25073;SDS011;13066;52.042;5.648;2024-02-16T12:32:53;8.82;;;7.00;;
25073;SDS011;13066;52.042;5.648;2024-02-16T12:35:21;8.75;;;7.25;;
25073;SDS011;13066;52.042;5.648;2024-02-16T12:37:50;10.63;;;7.15;;
25073;SDS011;13066;52.042;5.648;2024-02-16T12:40:19;14.38;;;8.75;;
25073;SDS011;13066;52.042;5.648;2024-02-16T12:42:47;11.27;;;7.57;;
25073;SDS011;13066;52.042;5.648;2024-02-16T12:45:15;10.13;;;7.50;;
25073;SDS011;13066;52.042;5.648;2024-02-16T12:47:44;10.38;;;8.15;;
25073;SDS011;13066;52.042;5.648;2024-02-16T12:50:13;11.00;;;8.18;;
25073;SDS011;13066;52.042;5.648;2024-02-16T12:52:41;9.70;;;8.10;;
25073;SDS011;13066;52.042;5.648;2024-02-16T12:55:22;10.45;;;8.60;;
25073;SDS011;13066;52.042;5.648;2024-02-16T12:57:50;9.77;;;7.60;;
25073;SDS011;13066;52.042;5.648;2024-02-16T13:00:19;8.38;;;7.57;;
25073;SDS011;13066;52.042;5.648;2024-02-16T13:02:47;10.50;;;7.53;;
25073;SDS011;13066;52.042;5.648;2024-02-16T13:05:15;10.18;;;7.97;;
25073;SDS011;13066;52.042;5.648;2024-02-16T13:07:43;11.20;;;7.63;;
25073;SDS011;13066;52.042;5.648;2024-02-16T13:10:12;8.40;;;7.18;;
25073;SDS011;13066;52.042;5.648;2024-02-16T13:12:41;8.75;;;7.07;;
25073;SDS011;13066;52.042;5.648;2024-02-16T13:15:10;7.85;;;6.40;;
25073;SDS011;13066;52.042;5.648;2024-02-16T13:17:53;6.50;;;5.80;;
25073;SDS011;13066;52.042;5.648;2024-02-16T13:20:22;6.05;;;5.45;;
25073;SDS011;13066;52.042;5.648;2024-02-16T13:22:50;6.30;;;5.22;;
25073;SDS011;13066;52.042;5.648;2024-02-16T13:25:18;5.50;;;4.97;;
25073;SDS011;13066;52.042;5.648;2024-02-16T13:27:48;5.35;;;4.47;;
25073;SDS011;13066;52.042;5.648;2024-02-16T13:30:16;5.75;;;4.03;;
25073;SDS011;13066;52.042;5.648;2024-02-16T13:32:44;5.70;;;4.55;;
25073;SDS011;13066;52.042;5.648;2024-02-16T13:35:13;5.72;;;4.03;;
25073;SDS011;13066;52.042;5.648;2024-02-16T13:37:46;6.35;;;4.75;;
25073;SDS011;13066;52.042;5.648;2024-02-16T13:40:14;5.50;;;4.60;;
25073;SDS011;13066;52.042;5.648;2024-02-16T13:42:44;5.15;;;3.83;;
25073;SDS011;13066;52.042;5.648;2024-02-16T13:45:14;5.22;;;3.60;;
25073;SDS011;13066;52.042;5.648;2024-02-16T13:47:42;5.47;;;3.60;;
25073;SDS011;13066;52.042;5.648;2024-02-16T13:50:10;5.82;;;3.10;;
25073;SDS011;13066;52.042;5.648;2024-02-16T13:52:38;5.60;;;3.63;;
25073;SDS011;13066;52.042;5.648;2024-02-16T13:55:07;4.25;;;2.95;;
25073;SDS011;13066;52.042;5.648;2024-02-16T13:57:35;4.30;;;3.03;;
25073;SDS011;13066;52.042;5.648;2024-02-16T14:00:06;2.83;;;2.45;;
25073;SDS011;13066;52.042;5.648;2024-02-16T14:02:39;3.00;;;2.60;;
25073;SDS011;13066;52.042;5.648;2024-02-16T14:05:08;3.55;;;2.70;;
25073;SDS011;13066;52.042;5.648;2024-02-16T14:07:36;2.40;;;2.20;;
25073;SDS011;13066;52.042;5.648;2024-02-16T14:10:16;2.83;;;2.28;;
25073;SDS011;13066;52.042;5.648;2024-02-16T14:12:45;3.60;;;2.05;;
25073;SDS011;13066;52.042;5.648;2024-02-16T14:15:13;2.53;;;2.03;;
25073;SDS011;13066;52.042;5.648;2024-02-16T14:17:44;2.25;;;2.05;;
25073;SDS011;13066;52.042;5.648;2024-02-16T14:20:12;3.35;;;2.45;;
25073;SDS011;13066;52.042;5.648;2024-02-16T14:22:40;2.25;;;1.90;;
25073;SDS011;13066;52.042;5.648;2024-02-16T14:25:09;3.30;;;2.10;;
25073;SDS011;13066;52.042;5.648;2024-02-16T14:27:40;2.90;;;2.00;;
25073;SDS011;13066;52.042;5.648;2024-02-16T14:30:09;3.08;;;1.70;;
25073;SDS011;13066;52.042;5.648;2024-02-16T14:32:38;2.97;;;1.90;;
25073;SDS011;13066;52.042;5.648;2024-02-16T14:35:09;2.20;;;1.52;;
25073;SDS011;13066;52.042;5.648;2024-02-16T14:37:37;2.40;;;1.70;;
25073;SDS011;13066;52.042;5.648;2024-02-16T14:40:06;2.58;;;1.83;;
25073;SDS011;13066;52.042;5.648;2024-02-16T14:42:37;4.00;;;2.00;;
25073;SDS011;13066;52.042;5.648;2024-02-16T14:45:07;2.80;;;1.90;;
25073;SDS011;13066;52.042;5.648;2024-02-16T14:47:36;3.47;;;2.10;;
25073;SDS011;13066;52.042;5.648;2024-02-16T14:50:05;2.25;;;1.85;;
25073;SDS011;13066;52.042;5.648;2024-02-16T14:52:36;2.65;;;1.67;;
25073;SDS011;13066;52.042;5.648;2024-02-16T14:55:06;2.83;;;1.90;;
25073;SDS011;13066;52.042;5.648;2024-02-16T14:57:37;4.75;;;2.67;;
25073;SDS011;13066;52.042;5.648;2024-02-16T15:00:07;2.42;;;2.22;;
25073;SDS011;13066;52.042;5.648;2024-02-16T15:02:37;5.47;;;2.50;;
25073;SDS011;13066;52.042;5.648;2024-02-16T15:05:08;3.85;;;2.50;;